»·PEaware :: N645PC KSAN-KLAX

N645PC :: KSAN-KLAX

FLIGHT INFORMATION

Flight Status: Arrived
Operator: Privately registered:
United States
More flights under this callsign
Pilot: Armando C. (16967)
Aircraft: PILATUS PC-12 EAGLE
(PC12)
More flights by this aircraft type
Origin: KSAN San Diego Intl-Lindbergh
United States
Destination: KLAX Los Angeles Intl
United States
More flights between these airports :: More routes between these airports
Route: +CWARD1 SLI
File this flight plan on PilotEdge
Remarks:
Altitude:
(Current/Filed)
12,000ft
Speed:
(Current/Filed)
230kts
Departed: 24-Nov-17 08:30 AM
Arrived: 24-Nov-17 09:02 AM
Distance/Time
Traveled:
94nm/0:31
Distance/Time
To Go:
Arrived

Flight Plot

Page will automatically refresh every two minutes.

Flight plan parsing failed; only flown route is shown


Map Options




Map Legend


Flown Route
Filed Route
Departure Airport
Arrival Airport
Navaid (VOR, NDB)
Fix

Horizontal Profiles

Position Reports

Time Latitude Longitude Heading Altitude Ground
Speed
24-Nov-17 08:16 32.731933 -117.191011 96 18ft 0kts
24-Nov-17 08:17 32.731933 -117.191011 96 18ft 0kts
24-Nov-17 08:18 32.731933 -117.191011 96 18ft 0kts
24-Nov-17 08:19 32.731933 -117.191010 96 18ft 0kts
24-Nov-17 08:20 32.731933 -117.191010 96 18ft 0kts
24-Nov-17 08:21 32.731933 -117.191010 96 18ft 0kts
24-Nov-17 08:22 32.731933 -117.191010 96 18ft 0kts
24-Nov-17 08:23 32.731933 -117.191009 96 18ft 0kts
24-Nov-17 08:24 32.731933 -117.191009 96 18ft 0kts
24-Nov-17 08:25 32.731933 -117.191009 96 18ft 0kts
24-Nov-17 08:26 32.731933 -117.191009 96 18ft 0kts
24-Nov-17 08:27 32.731933 -117.191008 96 18ft 0kts
24-Nov-17 08:28 32.731933 -117.191008 96 18ft 0kts
24-Nov-17 08:29 32.732481 -117.190575 18 18ft 10kts
24-Nov-17 08:30 32.731906 -117.186432 106 18ft 18kts
24-Nov-17 08:31 32.731122 -117.183095 106 18ft 18kts
24-Nov-17 08:32 32.729616 -117.176799 101 18ft 5kts
24-Nov-17 08:33 32.729646 -117.176544 72 18ft 0kts
24-Nov-17 08:34 32.730003 -117.175811 5 18ft 9kts
24-Nov-17 08:35 32.737647 -117.203285 295 972ft 139kts
24-Nov-17 08:36 32.758566 -117.233105 298 3061ft 131kts
24-Nov-17 08:37 32.780223 -117.276070 298 4782ft 171kts
24-Nov-17 08:38 32.812408 -117.335745 305 6564ft 191kts
24-Nov-17 08:39 32.841888 -117.376047 307 7818ft 195kts
24-Nov-17 08:40 32.881841 -117.429384 306 8026ft 230kts
24-Nov-17 08:41 32.927815 -117.501334 302 8036ft 236kts
24-Nov-17 08:42 32.960235 -117.553717 302 8038ft 236kts
24-Nov-17 08:43 32.998672 -117.617078 301 8036ft 235kts
24-Nov-17 08:44 33.036548 -117.680573 301 8020ft 234kts
24-Nov-17 08:45 33.074948 -117.743513 309 8002ft 237kts
24-Nov-17 08:46 33.126223 -117.793823 318 8002ft 239kts
24-Nov-17 08:47 33.178954 -117.842798 318 8004ft 239kts
24-Nov-17 08:48 33.233665 -117.887696 337 8007ft 244kts
24-Nov-17 08:49 33.301473 -117.897813 353 7995ft 247kts
24-Nov-17 08:50 33.370200 -117.903825 353 7996ft 247kts
24-Nov-17 08:51 33.435852 -117.924586 337 7933ft 246kts
24-Nov-17 08:52 33.501976 -117.951867 339 6936ft 245kts
24-Nov-17 08:53 33.561566 -117.974253 340 5993ft 233kts
24-Nov-17 08:55 33.685919 -118.019596 341 4036ft 218kts
24-Nov-17 08:56 33.741397 -118.039438 341 3981ft 188kts
24-Nov-17 08:57 33.788138 -118.056362 334 3986ft 169kts
24-Nov-17 08:58 33.830769 -118.081878 330 3533ft 171kts
24-Nov-17 08:59 33.872085 -118.107241 330 2991ft 160kts
24-Nov-17 09:00 33.912087 -118.131823 330 3002ft 166kts
24-Nov-17 09:01 33.938057 -118.176539 282 2608ft 179kts
24-Nov-17 09:02 33.949251 -118.233489 276 2488ft 165kts
24-Nov-17 09:03 33.948901 -118.275910 258 2181ft 123kts
24-Nov-17 09:04 33.943400 -118.316260 260 1821ft 103kts
24-Nov-17 09:05 33.940389 -118.349287 263 1110ft 98kts
24-Nov-17 09:06 33.937669 -118.380835 264 221ft 85kts
24-Nov-17 09:07 33.935955 -118.391083 138 129ft 9kts
24-Nov-17 09:08 33.935290 -118.391878 259 129ft 17kts
24-Nov-17 09:09 33.933614 -118.393544 163 129ft 1kts
24-Nov-17 09:10 33.933610 -118.393542 163 129ft 0kts
24-Nov-17 09:11 33.933610 -118.393542 163 129ft 0kts
24-Nov-17 09:12 33.933610 -118.393542 163 129ft 0kts
24-Nov-17 09:13 33.933610 -118.393542 163 129ft 0kts
24-Nov-17 09:14 33.933610 -118.393542 163 129ft 0kts
24-Nov-17 09:15 33.933610 -118.393542 163 129ft 0kts
24-Nov-17 09:16 33.933610 -118.393542 163 129ft 0kts
24-Nov-17 09:17 33.933610 -118.393542 163 129ft 0kts
24-Nov-17 09:18 33.933610 -118.393542 163 129ft 0kts
24-Nov-17 09:19 33.933610 -118.393542 163 129ft 0kts
24-Nov-17 09:20 33.933610 -118.393542 163 129ft 0kts
24-Nov-17 09:21 33.933610 -118.393542 163 129ft 0kts

Navigation Log

Ident Type
Flight plan parsing failed, navigation log unavailable